Time;durP1;ratioP1;P1;durP2;ratioP2;P2;SDS_P1;SDS_P2;PMS_P1;PMS_P2;Temp;Humidity;BMP_temperature;BMP_pressure;BME280_temperature;BME280_humidity;BME280_pressure;Samples;Min_cycle;Max_cycle;Signal;HPM_P1;HPM_P2
2022/12/18 00:01:33;;;;;;;45.87;25.13;;;-10.00;1.00;;;;;;5034068;28;20279;-62
2022/12/18 00:04:03;;;;;;;51.77;25.33;;;-10.10;1.00;;;;;;5034228;28;20286;-61
2022/12/18 00:06:32;;;;;;;40.57;23.43;;;-10.10;1.00;;;;;;5032907;28;20841;-61
2022/12/18 00:09:00;;;;;;;49.70;25.27;;;-10.10;1.00;;;;;;5032895;28;20279;-62
2022/12/18 00:11:29;;;;;;;48.43;26.40;;;-10.10;1.00;;;;;;5016974;28;20195;-61
2022/12/18 00:13:58;;;;;;;42.27;24.03;;;-10.10;1.00;;;;;;5032115;28;20200;-62
2022/12/18 00:16:26;;;;;;;43.37;23.20;;;-10.10;1.00;;;;;;5015634;28;20287;-63
2022/12/18 00:18:55;;;;;;;44.17;23.87;;;-10.00;1.00;;;;;;5035498;28;20329;-62
2022/12/18 00:21:22;;;;;;;46.67;24.70;;;-10.00;1.00;;;;;;5017206;28;21046;-64
2022/12/18 00:23:50;;;;;;;46.20;25.40;;;-10.00;1.00;;;;;;5017132;28;20202;-64
2022/12/18 00:26:20;;;;;;;44.03;23.60;;;-9.90;1.00;;;;;;5008895;28;20718;-62
2022/12/18 00:28:49;;;;;;;46.07;24.20;;;-10.00;1.00;;;;;;5031628;28;20732;-62
2022/12/18 00:31:19;;;;;;;49.97;25.67;;;-10.00;1.00;;;;;;5033172;28;20183;-62
2022/12/18 00:33:47;;;;;;;54.47;28.40;;;-10.10;1.00;;;;;;5017716;28;20226;-62
2022/12/18 00:36:21;;;;;;;47.10;25.87;;;-10.10;1.00;;;;;;5021594;28;20214;-62
2022/12/18 00:38:52;;;;;;;50.00;26.00;;;-10.00;1.00;;;;;;5037717;28;20548;-62
2022/12/18 00:44:07;;;;;;;52.23;28.73;;;-10.10;1.00;;;;;;5011903;28;20753;-62
2022/12/18 00:46:34;;;;;;;54.50;29.77;;;-10.10;1.00;;;;;;5037906;28;20204;-62
2022/12/18 00:49:02;;;;;;;54.37;30.53;;;-10.00;1.00;;;;;;5020750;28;20200;-62
2022/12/18 00:51:29;;;;;;;60.77;32.27;;;-10.10;1.00;;;;;;5035313;28;20683;-62
2022/12/18 00:53:56;;;;;;;61.60;32.67;;;-10.10;1.00;;;;;;5020162;28;20205;-62
2022/12/18 00:56:24;;;;;;;63.67;31.97;;;-10.10;1.00;;;;;;5020065;28;20683;-67
2022/12/18 00:58:52;;;;;;;58.37;31.23;;;-10.10;1.00;;;;;;5019697;28;20200;-61
2022/12/18 01:01:19;;;;;;;55.97;31.37;;;-10.10;1.00;;;;;;5018938;28;20230;-62
2022/12/18 01:03:46;;;;;;;56.60;30.57;;;-10.10;1.00;;;;;;5036612;28;20785;-63
2022/12/18 01:06:16;;;;;;;54.57;31.77;;;-10.10;1.00;;;;;;5019960;28;20757;-62
2022/12/18 01:08:43;;;;;;;57.47;31.97;;;-10.10;1.00;;;;;;5037405;28;20225;-64
2022/12/18 01:11:15;;;;;;;53.57;31.20;;;-10.10;1.00;;;;;;5019220;28;20187;-61
2022/12/18 01:13:42;;;;;;;59.73;31.17;;;-10.10;1.00;;;;;;5018623;28;20200;-63
2022/12/18 01:16:15;;;;;;;59.23;32.20;;;-10.10;1.00;;;;;;5035551;28;20189;-62
2022/12/18 01:18:42;;;;;;;55.93;29.60;;;-10.10;1.00;;;;;;5038780;28;20195;-64
2022/12/18 01:21:12;;;;;;;57.80;31.03;;;-10.10;1.00;;;;;;5020106;28;20727;-64
2022/12/18 01:23:39;;;;;;;57.17;29.77;;;-10.10;1.00;;;;;;5018685;28;20634;-65
2022/12/18 01:26:10;;;;;;;49.27;26.90;;;-10.20;1.00;;;;;;5035705;28;20278;-61
2022/12/18 01:28:39;;;;;;;53.50;29.03;;;-10.20;1.00;;;;;;5020167;28;20837;-61
2022/12/18 01:31:32;;;;;;;74.30;36.17;;;-10.10;1.00;;;;;;5035473;28;20184;-62
2022/12/18 01:34:02;;;;;;;60.67;33.93;;;-10.00;1.00;;;;;;5011823;28;20223;-61
2022/12/18 01:36:31;;;;;;;73.23;34.17;;;-10.10;1.00;;;;;;5031205;28;20195;-62
2022/12/18 01:39:04;;;;;;;56.27;29.47;;;-10.10;1.00;;;;;;5017642;28;20204;-63
2022/12/18 01:44:47;;;;;;;45.23;25.63;;;-10.10;1.00;;;;;;5010750;28;20200;-62
2022/12/18 01:47:27;;;;;;;46.23;24.00;;;-10.20;1.00;;;;;;5017134;28;20220;-61
2022/12/18 01:49:55;;;;;;;39.13;23.13;;;-10.30;1.00;;;;;;5034889;28;20559;-62
2022/12/18 01:52:25;;;;;;;46.77;24.17;;;-10.40;1.00;;;;;;5027944;28;20203;-64
2022/12/18 01:54:54;;;;;;;43.53;23.47;;;-10.40;1.00;;;;;;5033492;28;20188;-63
2022/12/18 01:57:23;;;;;;;42.87;23.50;;;-10.40;1.00;;;;;;4999328;28;20212;-62
2022/12/18 01:59:53;;;;;;;41.50;23.93;;;-10.40;1.00;;;;;;5030129;28;20207;-61
2022/12/18 02:02:20;;;;;;;44.07;23.10;;;-10.50;1.00;;;;;;5008456;28;20206;-61
2022/12/18 02:04:48;;;;;;;47.07;24.27;;;-10.50;1.00;;;;;;5031387;28;20330;-62
2022/12/18 02:07:45;;;;;;;51.43;25.87;;;-10.50;1.00;;;;;;5016002;28;20235;-60
2022/12/18 02:10:22;;;;;;;54.97;27.13;;;-10.40;1.00;;;;;;5006512;28;20769;-62
2022/12/18 02:13:08;;;;;;;44.87;22.80;;;-10.40;1.00;;;;;;5032602;28;20195;-62
2022/12/18 02:15:48;;;;;;;38.27;22.10;;;-10.40;1.00;;;;;;5015016;28;20196;-62
2022/12/18 02:18:22;;;;;;;46.93;22.50;;;-10.50;1.00;;;;;;5013270;28;20219;-61
2022/12/18 02:21:01;;;;;;;43.93;22.23;;;-10.40;1.00;;;;;;5013714;28;20199;-61
2022/12/18 02:23:56;;;;;;;41.77;23.17;;;-10.50;1.00;;;;;;5032224;28;20200;-62
2022/12/18 02:26:27;;;;;;;42.77;22.97;;;-10.50;1.00;;;;;;5031987;28;20599;-60
2022/12/18 02:29:03;;;;;;;41.30;22.43;;;-10.50;1.00;;;;;;5002927;28;20223;-62
2022/12/18 02:31:43;;;;;;;44.53;24.23;;;-10.50;1.00;;;;;;5012398;28;21139;-63
2022/12/18 02:34:12;;;;;;;37.87;22.07;;;-10.50;1.00;;;;;;5030329;28;20286;-62
2022/12/18 02:36:42;;;;;;;43.50;23.80;;;-10.50;1.00;;;;;;5031138;28;20226;-61
2022/12/18 02:39:12;;;;;;;45.67;22.70;;;-10.50;1.00;;;;;;5013046;28;20250;-62
2022/12/18 02:41:47;;;;;;;48.40;22.47;;;-10.50;1.00;;;;;;5013338;28;20207;-63
2022/12/18 02:44:14;;;;;;;33.83;19.97;;;-10.50;1.00;;;;;;5015766;28;20203;-62
2022/12/18 02:46:48;;;;;;;38.77;21.97;;;-10.50;1.00;;;;;;5016025;28;20220;-61
2022/12/18 02:49:40;;;;;;;43.20;23.67;;;-10.60;1.00;;;;;;4999958;28;20778;-63
2022/12/18 02:52:31;;;;;;;43.93;22.43;;;-10.40;1.00;;;;;;5001858;28;20195;-62
2022/12/18 02:55:31;;;;;;;41.40;22.60;;;-10.40;1.00;;;;;;5017378;28;20188;-62
2022/12/18 02:58:16;;;;;;;37.10;20.50;;;-10.40;1.00;;;;;;5018027;28;20208;-62
2022/12/18 03:01:09;;;;;;;36.97;20.77;;;-10.50;1.00;;;;;;5000242;28;20287;-62
2022/12/18 03:03:41;;;;;;;33.50;20.53;;;-10.50;1.00;;;;;;5016168;28;20612;-62
2022/12/18 03:06:14;;;;;;;38.37;21.53;;;-10.40;1.00;;;;;;5001559;28;20241;-62
2022/12/18 03:08:48;;;;;;;34.73;21.20;;;-10.40;1.00;;;;;;5024072;28;20665;-64
2022/12/18 03:12:22;;;;;;;36.80;20.23;;;-10.50;1.00;;;;;;5016632;28;20199;-63
2022/12/18 03:14:07;;;;;;;45.23;21.67;;;-10.50;1.00;;;;;;5009652;28;20286;-62
2022/12/18 03:16:35;;;;;;;42.27;20.70;;;-10.50;1.00;;;;;;5036537;28;20200;-61
2022/12/18 03:19:15;;;;;;;36.07;21.33;;;-10.50;1.00;;;;;;5010753;28;20805;-62
2022/12/18 03:21:49;;;;;;;34.70;19.50;;;-10.60;1.00;;;;;;5017102;28;20207;-64
2022/12/18 03:24:20;;;;;;;34.67;19.80;;;-10.70;1.00;;;;;;5002429;28;20191;-63
2022/12/18 03:26:52;;;;;;;40.67;21.47;;;-10.60;1.00;;;;;;5018031;28;20220;-62
2022/12/18 03:29:29;;;;;;;35.07;18.07;;;-10.70;1.00;;;;;;5008267;28;20216;-63
2022/12/18 03:32:03;;;;;;;34.87;20.00;;;-10.70;1.00;;;;;;5035435;28;20184;-62
2022/12/18 03:34:35;;;;;;;43.37;20.00;;;-10.70;1.00;;;;;;5016251;28;20200;-62
2022/12/18 03:37:05;;;;;;;41.33;20.93;;;-10.70;1.00;;;;;;5009824;28;20192;-62
2022/12/18 03:39:34;;;;;;;39.53;20.43;;;-10.70;1.00;;;;;;5017807;28;20258;-62
2022/12/18 03:42:15;;;;;;;34.50;19.47;;;-10.70;1.00;;;;;;5030009;28;20224;-63
2022/12/18 03:44:52;;;;;;;34.13;19.97;;;-10.70;1.00;;;;;;5026548;28;20207;-62
2022/12/18 03:47:22;;;;;;;33.50;19.33;;;-10.80;1.00;;;;;;5017233;28;20238;-62
2022/12/18 03:50:22;;;;;;;37.17;20.90;;;-10.80;1.00;;;;;;4994646;28;20222;-62
2022/12/18 03:52:50;;;;;;;34.00;19.57;;;-10.70;1.00;;;;;;5018988;28;20226;-63
2022/12/18 03:55:19;;;;;;;33.50;19.93;;;-10.70;1.00;;;;;;5016757;28;20188;-62
2022/12/18 03:57:53;;;;;;;35.53;19.97;;;-10.70;1.00;;;;;;5010524;28;20234;-62
2022/12/18 04:00:20;;;;;;;32.23;17.70;;;-10.70;1.00;;;;;;4985146;28;20203;-62
2022/12/18 04:03:01;;;;;;;29.67;18.77;;;-10.80;1.00;;;;;;5034095;28;20217;-62
2022/12/18 04:05:38;;;;;;;35.60;19.90;;;-10.80;1.00;;;;;;5002442;28;20202;-64
2022/12/18 04:08:06;;;;;;;34.23;18.93;;;-10.70;1.00;;;;;;4994839;28;20296;-63
2022/12/18 04:10:37;;;;;;;32.33;18.33;;;-10.70;1.00;;;;;;4982900;28;20202;-62
2022/12/18 04:13:04;;;;;;;30.20;18.93;;;-10.60;1.00;;;;;;4980441;28;20707;-62
2022/12/18 04:15:35;;;;;;;31.50;18.60;;;-10.60;1.00;;;;;;4982281;28;20185;-63
2022/12/18 04:18:04;;;;;;;35.10;19.13;;;-10.60;1.00;;;;;;4982975;28;20209;-63
2022/12/18 04:20:38;;;;;;;30.83;18.07;;;-10.60;1.00;;;;;;4982014;28;20207;-64
2022/12/18 04:23:05;;;;;;;39.90;19.10;;;-10.60;1.00;;;;;;4983133;28;20235;-62
2022/12/18 04:25:32;;;;;;;33.03;18.87;;;-10.60;1.00;;;;;;4983033;28;20206;-64
2022/12/18 04:28:13;;;;;;;30.83;17.87;;;-10.70;1.00;;;;;;4998465;28;20217;-62
2022/12/18 04:30:41;;;;;;;33.23;17.40;;;-10.70;1.00;;;;;;4979304;28;20600;-62
2022/12/18 04:33:13;;;;;;;34.30;17.50;;;-10.70;1.00;;;;;;4981752;28;20213;-62
2022/12/18 04:35:40;;;;;;;27.40;16.90;;;-10.80;1.00;;;;;;4981714;28;20677;-64
2022/12/18 04:38:08;;;;;;;33.17;17.67;;;-10.80;1.00;;;;;;4981828;28;20336;-62
2022/12/18 04:40:36;;;;;;;28.90;17.00;;;-10.90;1.00;;;;;;4984290;28;20703;-64
2022/12/18 04:43:07;;;;;;;32.73;18.87;;;-10.90;1.00;;;;;;4996875;28;20206;-64
2022/12/18 04:45:35;;;;;;;35.13;18.67;;;-10.90;1.00;;;;;;4999818;28;20237;-63
2022/12/18 04:48:02;;;;;;;30.87;17.37;;;-10.90;1.00;;;;;;4981914;28;20213;-64
2022/12/18 04:50:30;;;;;;;29.13;17.60;;;-10.90;1.00;;;;;;4999228;28;20220;-64
2022/12/18 04:52:57;;;;;;;31.67;18.17;;;-10.90;1.00;;;;;;4981772;28;20197;-64
2022/12/18 04:55:24;;;;;;;32.50;19.57;;;-10.90;1.00;;;;;;4998122;28;20661;-63
2022/12/18 04:57:51;;;;;;;31.93;17.53;;;-10.90;1.00;;;;;;4990716;28;20217;-64
2022/12/18 05:00:18;;;;;;;31.03;18.10;;;-10.80;1.00;;;;;;4989915;28;20690;-63
2022/12/18 05:02:45;;;;;;;37.20;18.70;;;-10.90;1.00;;;;;;4994130;28;21618;-64
2022/12/18 05:05:13;;;;;;;35.03;19.03;;;-10.90;1.00;;;;;;4991813;28;20247;-64
2022/12/18 05:07:39;;;;;;;32.07;18.50;;;-10.80;1.00;;;;;;4992875;28;20300;-62
2022/12/18 05:10:07;;;;;;;31.80;19.30;;;-10.80;1.00;;;;;;4996292;28;20197;-62
2022/12/18 05:12:57;;;;;;;32.23;18.43;;;-10.80;1.00;;;;;;4991833;28;20404;-64
2022/12/18 05:15:23;;;;;;;36.20;18.50;;;-10.80;1.00;;;;;;4979234;28;20213;-63
2022/12/18 05:17:50;;;;;;;34.00;19.13;;;-10.90;1.00;;;;;;4976896;28;20207;-63
2022/12/18 05:20:18;;;;;;;33.50;17.80;;;-10.90;1.00;;;;;;4995055;28;20198;-61
2022/12/18 05:22:45;;;;;;;29.23;18.33;;;-10.90;1.00;;;;;;4988714;28;20200;-63
2022/12/18 05:25:12;;;;;;;35.93;18.87;;;-10.90;1.00;;;;;;4997984;28;20275;-63
2022/12/18 05:27:38;;;;;;;34.40;18.60;;;-10.90;1.00;;;;;;4989640;28;20209;-63
2022/12/18 05:30:06;;;;;;;35.03;18.50;;;-11.00;1.00;;;;;;4980266;28;20221;-64
2022/12/18 05:32:33;;;;;;;30.53;17.17;;;-11.00;1.00;;;;;;4981482;28;20565;-63
2022/12/18 05:35:00;;;;;;;25.57;15.60;;;-11.00;1.00;;;;;;4980756;28;20199;-63
2022/12/18 05:37:27;;;;;;;34.20;18.17;;;-11.00;1.00;;;;;;4995631;28;20457;-63
2022/12/18 05:39:54;;;;;;;29.40;16.03;;;-10.90;1.00;;;;;;4978783;28;20207;-61
2022/12/18 05:42:21;;;;;;;32.33;15.70;;;-10.90;1.00;;;;;;4973711;28;20208;-60
2022/12/18 05:44:48;;;;;;;29.40;16.53;;;-10.90;1.00;;;;;;4997190;28;20200;-61
2022/12/18 05:47:15;;;;;;;29.93;16.53;;;-10.90;1.00;;;;;;4999023;28;20218;-62
2022/12/18 05:49:42;;;;;;;33.43;19.47;;;-10.90;1.00;;;;;;4978775;28;20672;-62
2022/12/18 05:52:09;;;;;;;42.27;22.17;;;-10.80;1.00;;;;;;4997606;28;20292;-61
2022/12/18 05:54:36;;;;;;;36.20;22.17;;;-10.90;1.00;;;;;;4972175;28;20263;-61
2022/12/18 05:57:03;;;;;;;32.30;19.23;;;-10.90;1.00;;;;;;4965243;28;20201;-61
2022/12/18 05:59:30;;;;;;;33.97;18.33;;;-10.90;1.00;;;;;;5002715;28;20315;-61
2022/12/18 06:01:57;;;;;;;34.97;19.77;;;-10.90;1.00;;;;;;4979304;28;20205;-61
2022/12/18 06:04:26;;;;;;;44.17;20.33;;;-10.90;1.00;;;;;;5008230;28;20270;-60
2022/12/18 06:06:53;;;;;;;40.30;20.67;;;-10.80;1.00;;;;;;4991531;28;20215;-61
2022/12/18 06:09:20;;;;;;;36.73;19.77;;;-10.70;1.00;;;;;;5021341;28;20212;-61
2022/12/18 06:11:47;;;;;;;37.03;18.73;;;-10.50;1.00;;;;;;5014983;28;20636;-62
2022/12/18 06:14:16;;;;;;;27.03;16.47;;;-10.50;1.00;;;;;;5018315;28;20192;-61
2022/12/18 06:16:43;;;;;;;30.50;17.13;;;-10.60;1.00;;;;;;5006562;28;20223;-60
2022/12/18 06:19:15;;;;;;;30.20;17.83;;;-10.70;1.00;;;;;;5016875;28;20713;-61
2022/12/18 06:21:42;;;;;;;31.97;17.27;;;-10.80;1.00;;;;;;5015016;28;20228;-60
2022/12/18 06:24:09;;;;;;;27.97;16.70;;;-10.80;1.00;;;;;;5024328;28;20211;-61
2022/12/18 06:26:41;;;;;;;28.67;16.10;;;-10.90;1.00;;;;;;5015558;28;20567;-63
2022/12/18 06:29:07;;;;;;;35.07;16.33;;;-10.90;1.00;;;;;;4994638;28;20699;-63
2022/12/18 06:31:34;;;;;;;31.63;15.17;;;-10.90;1.00;;;;;;5014817;28;20227;-63
2022/12/18 06:34:03;;;;;;;29.13;16.13;;;-10.90;1.00;;;;;;5008207;28;20201;-62
2022/12/18 06:36:30;;;;;;;34.53;17.60;;;-10.90;1.00;;;;;;5014583;28;20200;-62
2022/12/18 06:38:57;;;;;;;27.33;16.27;;;-10.90;1.00;;;;;;5003638;28;20682;-63
2022/12/18 06:41:24;;;;;;;29.40;15.83;;;-10.90;1.00;;;;;;5015139;28;20676;-63
2022/12/18 06:43:51;;;;;;;32.80;16.93;;;-11.00;1.00;;;;;;5015972;28;20200;-61
2022/12/18 06:46:25;;;;;;;26.57;15.23;;;-11.00;1.00;;;;;;5015007;28;20664;-62
2022/12/18 06:48:52;;;;;;;28.93;16.47;;;-10.90;1.00;;;;;;5017713;28;20300;-61
2022/12/18 06:51:21;;;;;;;29.27;15.90;;;-10.90;1.00;;;;;;5014652;28;20287;-61
2022/12/18 06:53:48;;;;;;;28.13;15.10;;;-11.00;1.00;;;;;;5015917;28;20263;-60
2022/12/18 06:56:15;;;;;;;26.73;15.43;;;-11.00;1.00;;;;;;5031129;28;20200;-61
2022/12/18 06:58:42;;;;;;;30.03;15.93;;;-11.00;1.00;;;;;;5016833;28;20431;-61
2022/12/18 07:01:11;;;;;;;29.03;15.87;;;-11.00;1.00;;;;;;5016165;28;20649;-61
2022/12/18 07:03:40;;;;;;;22.07;14.40;;;-10.90;1.00;;;;;;5017924;28;20240;-61
2022/12/18 07:06:14;;;;;;;27.03;15.07;;;-10.90;1.00;;;;;;4992910;28;20675;-62
2022/12/18 07:08:41;;;;;;;29.13;16.20;;;-10.90;1.00;;;;;;5016276;28;20223;-62
2022/12/18 07:11:08;;;;;;;27.00;16.03;;;-10.80;1.00;;;;;;5013673;28;20519;-62
2022/12/18 07:13:35;;;;;;;29.50;16.67;;;-10.90;1.00;;;;;;5015459;28;20188;-61
2022/12/18 07:16:08;;;;;;;41.20;20.70;;;-10.80;1.00;;;;;;5014296;28;20267;-64
2022/12/18 07:18:45;;;;;;;43.90;21.23;;;-10.80;1.00;;;;;;5016941;28;20490;-61
2022/12/18 07:21:16;;;;;;;51.67;23.73;;;-10.70;1.00;;;;;;5015283;28;20196;-63
2022/12/18 07:23:46;;;;;;;37.10;19.20;;;-10.60;1.00;;;;;;5015114;28;20628;-63
2022/12/18 07:26:14;;;;;;;58.43;27.97;;;-10.60;1.00;;;;;;5031448;28;20193;-62
2022/12/18 07:28:42;;;;;;;35.03;19.87;;;-10.50;1.00;;;;;;5014794;28;20243;-61
2022/12/18 07:31:11;;;;;;;31.80;17.63;;;-10.50;1.00;;;;;;5026123;28;20192;-61
2022/12/18 07:33:39;;;;;;;33.80;18.63;;;-10.40;1.00;;;;;;5029173;28;20288;-61
2022/12/18 07:36:07;;;;;;;38.67;18.90;;;-10.30;1.00;;;;;;5031123;28;20207;-63
2022/12/18 07:38:35;;;;;;;33.77;18.13;;;-10.30;1.00;;;;;;5002702;28;20208;-61
2022/12/18 07:41:04;;;;;;;34.60;19.40;;;-10.20;1.00;;;;;;5016236;28;20207;-66
2022/12/18 07:43:33;;;;;;;35.03;20.23;;;-10.20;1.00;;;;;;5015349;28;20203;-60
2022/12/18 07:46:00;;;;;;;33.13;17.40;;;-10.20;1.00;;;;;;5014860;28;20999;-61
2022/12/18 07:48:28;;;;;;;37.27;19.33;;;-10.10;1.00;;;;;;5013381;28;20233;-62
2022/12/18 07:51:00;;;;;;;34.10;18.83;;;-10.10;1.00;;;;;;5031584;28;20200;-60
2022/12/18 07:53:27;;;;;;;33.57;19.23;;;-10.00;1.00;;;;;;5014667;28;20197;-60
2022/12/18 07:55:58;;;;;;;39.30;21.37;;;-10.00;1.00;;;;;;5015726;28;20795;-62
2022/12/18 07:58:45;;;;;;;33.07;19.17;;;-9.90;1.00;;;;;;5013913;28;20204;-62
2022/12/18 08:01:14;;;;;;;31.90;19.13;;;-9.80;1.00;;;;;;5010649;28;20201;-61
2022/12/18 08:03:41;;;;;;;30.57;17.87;;;-9.80;1.00;;;;;;5011341;28;20244;-62
2022/12/18 08:06:09;;;;;;;26.23;15.27;;;-9.80;1.00;;;;;;5016393;28;20200;-60
2022/12/18 08:08:37;;;;;;;24.23;14.77;;;-9.70;1.00;;;;;;5013936;28;20242;-62
2022/12/18 08:11:04;;;;;;;29.60;15.53;;;-9.60;1.00;;;;;;5014159;28;20287;-62
2022/12/18 08:13:31;;;;;;;31.17;17.13;;;-9.50;1.00;;;;;;5012681;28;20284;-65
2022/12/18 08:16:02;;;;;;;22.97;15.13;;;-9.40;1.00;;;;;;5011628;28;20193;-66
2022/12/18 08:18:29;;;;;;;23.83;14.27;;;-9.20;1.00;;;;;;5017182;28;20220;-65
2022/12/18 08:21:18;;;;;;;31.30;17.37;;;-9.10;1.00;;;;;;5013504;28;20690;-65
2022/12/18 08:23:47;;;;;;;23.00;15.87;;;-8.90;1.00;;;;;;5013300;28;20298;-65
2022/12/18 08:26:15;;;;;;;31.50;17.03;;;-8.60;1.00;;;;;;5016658;28;20204;-64
2022/12/18 08:28:42;;;;;;;30.67;18.87;;;-8.40;1.00;;;;;;5014712;28;20242;-65
2022/12/18 08:31:09;;;;;;;30.17;19.47;;;-8.20;1.00;;;;;;5014196;28;20197;-65
2022/12/18 08:33:37;;;;;;;35.07;20.43;;;-8.10;1.00;;;;;;5015904;28;20275;-65
2022/12/18 08:36:05;;;;;;;35.80;21.10;;;-7.90;1.00;;;;;;5013461;28;20207;-65
2022/12/18 08:38:33;;;;;;;34.90;19.80;;;-7.80;1.00;;;;;;5012117;28;20206;-65
2022/12/18 08:41:01;;;;;;;30.73;18.83;;;-7.70;1.00;;;;;;5012677;28;20270;-65
2022/12/18 08:46:14;;;;;;;37.03;20.50;;;-7.50;1.00;;;;;;5024158;28;20281;-65
2022/12/18 08:48:41;;;;;;;30.33;20.47;;;-7.30;1.00;;;;;;4992804;28;20224;-65
2022/12/18 08:51:09;;;;;;;34.73;20.50;;;-7.10;1.00;;;;;;5014355;28;20181;-65
2022/12/18 08:53:37;;;;;;;40.77;24.33;;;-7.10;1.00;;;;;;5016096;28;20240;-65
2022/12/18 08:56:05;;;;;;;43.97;25.47;;;-6.90;1.00;;;;;;5018007;28;20276;-64
2022/12/18 08:58:32;;;;;;;43.90;26.83;;;-6.70;1.00;;;;;;5011009;28;20213;-64
2022/12/18 09:01:03;;;;;;;34.73;22.67;;;-6.60;1.00;;;;;;5013214;28;20269;-65
2022/12/18 09:03:31;;;;;;;32.13;20.43;;;-6.40;1.00;;;;;;5015977;28;20800;-65
2022/12/18 09:05:58;;;;;;;34.83;23.13;;;-6.20;1.00;;;;;;5014763;28;20229;-65
2022/12/18 09:08:26;;;;;;;34.67;21.47;;;-6.00;1.00;;;;;;5013584;28;20650;-65
2022/12/18 09:10:53;;;;;;;32.17;20.03;;;-5.80;1.00;;;;;;4999703;28;20215;-65
2022/12/18 09:13:20;;;;;;;25.97;18.07;;;-5.50;1.00;;;;;;5032897;28;20504;-65
2022/12/18 09:15:50;;;;;;;27.40;17.90;;;-5.20;1.00;;;;;;5016323;28;20216;-65
2022/12/18 09:18:19;;;;;;;27.63;18.83;;;-5.00;1.00;;;;;;4999511;28;20200;-65
2022/12/18 09:20:47;;;;;;;26.83;17.83;;;-4.70;1.00;;;;;;5017276;28;20323;-65
2022/12/18 09:23:14;;;;;;;29.20;17.10;;;-4.50;1.00;;;;;;5023211;28;20216;-65
2022/12/18 09:25:41;;;;;;;25.43;17.30;;;-3.70;1.00;;;;;;4998222;28;20200;-65
2022/12/18 09:28:14;;;;;;;27.40;18.57;;;-2.50;1.00;;;;;;5014406;28;20238;-65
2022/12/18 09:30:49;;;;;;;24.73;17.27;;;-0.80;1.00;;;;;;5018067;28;20200;-65
2022/12/18 09:33:16;;;;;;;22.70;15.40;;;2.00;1.00;;;;;;5001031;28;20204;-66
2022/12/18 09:35:45;;;;;;;22.83;14.97;;;4.40;1.00;;;;;;5033683;28;20188;-64
2022/12/18 09:38:14;;;;;;;21.33;14.50;;;5.50;1.00;;;;;;5033034;28;20185;-65
2022/12/18 09:40:53;;;;;;;20.13;14.13;;;5.10;1.00;;;;;;5018662;28;20247;-64
2022/12/18 09:43:27;;;;;;;19.33;14.63;;;3.80;1.00;;;;;;5019198;28;20279;-65
2022/12/18 09:46:04;;;;;;;22.67;15.63;;;1.90;1.00;;;;;;5015606;28;20222;-64
2022/12/18 09:48:44;;;;;;;22.90;15.50;;;0.80;1.00;;;;;;5009478;28;20758;-64
2022/12/18 09:51:21;;;;;;;24.20;15.30;;;1.00;1.00;;;;;;5011379;28;20287;-65
2022/12/18 09:53:58;;;;;;;23.60;14.90;;;1.60;1.00;;;;;;5014493;28;20215;-65
2022/12/18 09:56:28;;;;;;;45.13;27.07;;;2.10;1.00;;;;;;5016401;28;20196;-66
2022/12/18 09:59:01;;;;;;;25.93;17.43;;;3.70;1.00;;;;;;5017197;28;20197;-65
2022/12/18 10:01:31;;;;;;;19.13;14.23;;;4.80;1.00;;;;;;4994188;28;20248;-63
2022/12/18 10:04:09;;;;;;;17.00;11.63;;;5.90;1.00;;;;;;5000363;28;20243;-65
2022/12/18 10:06:44;;;;;;;16.60;12.53;;;7.10;1.00;;;;;;5016070;28;20864;-65
2022/12/18 10:09:36;;;;;;;14.67;11.30;;;8.10;1.00;;;;;;5016518;28;20278;-64
2022/12/18 10:12:21;;;;;;;14.43;10.50;;;8.00;1.00;;;;;;5028193;28;20235;-64
2022/12/18 10:15:04;;;;;;;11.60;7.67;;;8.60;1.00;;;;;;5015137;28;20196;-64
2022/12/18 10:17:56;;;;;;;16.20;11.17;;;9.00;1.00;;;;;;5019281;28;20670;-65
2022/12/18 10:20:55;;;;;;;18.87;12.00;;;6.80;1.00;;;;;;5017271;28;20197;-63
2022/12/18 10:23:57;;;;;;;16.30;12.20;;;5.20;1.00;;;;;;5029092;28;20188;-65
2022/12/18 10:26:25;;;;;;;15.50;11.80;;;6.30;1.00;;;;;;4937251;28;20245;-65
2022/12/18 10:28:53;;;;;;;19.40;14.20;;;6.20;1.00;;;;;;5020727;28;20413;-65
2022/12/18 10:31:23;;;;;;;13.57;10.00;;;5.80;1.00;;;;;;5011405;28;20726;-67
2022/12/18 10:33:53;;;;;;;10.43;8.33;;;5.70;1.00;;;;;;5008210;28;20730;-65
2022/12/18 10:36:24;;;;;;;12.90;9.60;;;5.80;1.00;;;;;;5009869;28;20198;-64
2022/12/18 10:38:51;;;;;;;16.20;12.87;;;5.60;1.00;;;;;;5013896;28;20193;-64
2022/12/18 10:41:18;;;;;;;12.13;10.40;;;5.00;1.00;;;;;;5011000;28;20200;-62
2022/12/18 10:43:48;;;;;;;13.37;8.73;;;4.30;1.00;;;;;;5007587;28;20189;-62
2022/12/18 10:46:19;;;;;;;9.70;7.57;;;4.00;1.00;;;;;;5013020;28;20281;-63
2022/12/18 10:48:46;;;;;;;12.77;8.50;;;3.60;1.00;;;;;;4997911;28;20220;-64
2022/12/18 10:51:24;;;;;;;10.60;7.70;;;3.30;1.00;;;;;;5016278;28;20196;-64
2022/12/18 10:53:59;;;;;;;10.60;6.97;;;3.00;1.00;;;;;;5015312;28;20209;-64
2022/12/18 10:56:29;;;;;;;9.70;6.50;;;2.70;1.00;;;;;;5003254;28;20621;-64
2022/12/18 10:58:59;;;;;;;8.90;6.87;;;2.40;1.00;;;;;;5014447;28;20289;-64
2022/12/18 11:01:27;;;;;;;11.63;7.30;;;2.00;1.00;;;;;;5030055;28;20195;-64
2022/12/18 11:03:53;;;;;;;9.73;7.60;;;1.70;1.00;;;;;;5016390;28;20235;-65
2022/12/18 11:06:27;;;;;;;10.77;6.13;;;1.80;1.00;;;;;;5016071;28;20668;-63
2022/12/18 11:09:02;;;;;;;14.47;7.40;;;2.10;1.00;;;;;;5015139;28;20204;-66
2022/12/18 11:11:39;;;;;;;13.37;8.90;;;1.90;1.00;;;;;;5014975;28;20247;-65
2022/12/18 11:14:16;;;;;;;14.93;8.77;;;1.60;1.00;;;;;;5009119;28;20203;-66
2022/12/18 11:16:46;;;;;;;15.80;9.43;;;1.50;1.00;;;;;;5009129;28;20196;-65
2022/12/18 11:19:35;;;;;;;10.03;6.90;;;2.00;1.00;;;;;;5014641;28;20206;-66
2022/12/18 11:22:21;;;;;;;12.13;7.77;;;2.60;1.00;;;;;;5009893;28;20299;-64
2022/12/18 11:24:56;;;;;;;12.23;7.17;;;3.00;1.00;;;;;;5006492;28;20605;-65
2022/12/18 11:28:08;;;;;;;8.77;6.80;;;2.80;1.00;;;;;;5012630;28;20197;-66
2022/12/18 11:30:36;;;;;;;10.70;8.00;;;2.90;1.00;;;;;;5014084;28;20224;-65
2022/12/18 11:33:09;;;;;;;10.13;7.50;;;2.60;1.00;;;;;;5026692;28;20289;-63
2022/12/18 11:35:49;;;;;;;11.23;8.23;;;2.60;1.00;;;;;;5009028;28;20251;-67
2022/12/18 11:38:23;;;;;;;12.57;8.80;;;2.40;1.00;;;;;;5013752;28;20915;-65
2022/12/18 11:41:17;;;;;;;11.47;9.07;;;2.20;1.00;;;;;;5012517;28;20553;-70
2022/12/18 11:43:57;;;;;;;12.33;7.80;;;2.20;1.00;;;;;;4990823;28;20237;-65
2022/12/18 11:46:37;;;;;;;12.83;7.80;;;1.90;1.00;;;;;;5027238;28;20193;-67
2022/12/18 11:49:21;;;;;;;13.60;9.40;;;1.40;1.00;;;;;;5016461;28;20707;-66
2022/12/18 11:51:54;;;;;;;18.63;12.07;;;1.40;1.00;;;;;;5016701;28;20224;-66
2022/12/18 11:54:21;;;;;;;19.07;11.17;;;1.40;1.00;;;;;;5013478;28;20185;-66
2022/12/18 11:57:02;;;;;;;14.43;9.33;;;1.20;1.00;;;;;;5013585;28;20642;-65
2022/12/18 11:59:53;;;;;;;10.30;8.00;;;0.90;1.00;;;;;;5016280;28;20199;-65
2022/12/18 12:02:39;;;;;;;13.83;8.63;;;0.70;1.00;;;;;;5012465;28;20193;-66
2022/12/18 12:05:31;;;;;;;13.73;8.57;;;0.40;1.00;;;;;;5013846;28;20310;-65
2022/12/18 12:08:16;;;;;;;16.60;8.80;;;0.10;1.00;;;;;;5014281;28;20211;-65
2022/12/18 12:11:15;;;;;;;14.13;8.97;;;0.00;1.00;;;;;;5012103;28;20204;-67
2022/12/18 12:13:42;;;;;;;10.93;8.20;;;0.10;1.00;;;;;;5031528;28;20603;-64
2022/12/18 12:16:17;;;;;;;14.77;8.97;;;-0.10;1.00;;;;;;5012479;28;20222;-65
2022/12/18 12:18:54;;;;;;;18.00;12.23;;;-0.20;1.00;;;;;;5015585;28;20193;-65
2022/12/18 12:21:42;;;;;;;17.27;10.43;;;-0.20;1.00;;;;;;5002768;28;20311;-67
2022/12/18 12:24:36;;;;;;;18.70;10.43;;;-0.20;1.00;;;;;;4997251;28;20196;-65
2022/12/18 12:27:25;;;;;;;16.63;8.77;;;-0.20;1.00;;;;;;5008988;28;20263;-66
2022/12/18 12:29:55;;;;;;;12.50;8.67;;;-0.10;1.00;;;;;;5015976;28;20715;-64
2022/12/18 12:32:43;;;;;;;10.90;7.77;;;-0.10;1.00;;;;;;5013229;28;20288;-65
2022/12/18 12:35:48;;;;;;;13.77;9.70;;;0.00;1.00;;;;;;5013652;28;20272;-65
2022/12/18 12:38:55;;;;;;;15.07;10.13;;;-0.10;1.00;;;;;;5016860;28;20275;-64
2022/12/18 12:44:29;;;;;;;10.50;7.60;;;-0.20;1.00;;;;;;5015383;28;20209;-64
2022/12/18 12:47:02;;;;;;;11.57;8.83;;;-0.10;1.00;;;;;;5008288;28;20388;-64
2022/12/18 12:49:32;;;;;;;12.23;8.33;;;-0.10;1.00;;;;;;5017733;28;20291;-65
2022/12/18 12:52:16;;;;;;;14.17;9.33;;;-0.10;1.00;;;;;;5008429;28;20781;-67
2022/12/18 12:54:44;;;;;;;18.47;11.37;;;-0.20;1.00;;;;;;5017868;28;20223;-64
2022/12/18 12:57:35;;;;;;;13.90;8.83;;;-0.20;1.00;;;;;;5018408;28;20196;-65
2022/12/18 13:00:06;;;;;;;16.10;9.33;;;-0.30;1.00;;;;;;5026219;28;20568;-65
2022/12/18 13:02:48;;;;;;;13.97;8.53;;;-0.40;1.00;;;;;;5010387;28;20616;-66
2022/12/18 13:05:41;;;;;;;12.77;8.57;;;-0.40;1.00;;;;;;5016441;28;20251;-64
2022/12/18 13:08:11;;;;;;;14.27;9.50;;;-0.50;1.00;;;;;;5027819;28;20283;-65
2022/12/18 13:10:41;;;;;;;16.70;11.30;;;-0.50;1.00;;;;;;5013725;28;20209;-65
2022/12/18 13:13:13;;;;;;;15.00;10.33;;;-0.50;1.00;;;;;;5031230;28;20184;-65
2022/12/18 13:16:06;;;;;;;27.83;16.07;;;-0.50;1.00;;;;;;5012370;28;20195;-66